createdAt,value
2022-08-07T00:00:29.519Z,80.01
2022-08-07T00:02:56.878Z,77.77
2022-08-07T00:05:24.773Z,77.53
2022-08-07T00:07:58.311Z,76.21
2022-08-07T00:10:30.757Z,75.01
2022-08-07T00:13:23.549Z,74.17
2022-08-07T00:15:50.898Z,73.50
2022-08-07T00:18:24.712Z,73.15
2022-08-07T00:21:01.511Z,72.88
2022-08-07T00:23:30.346Z,73.02
2022-08-07T00:25:59.236Z,73.92
2022-08-07T00:28:31.805Z,74.42
2022-08-07T00:31:12.491Z,77.33
2022-08-07T00:33:43.427Z,79.80
2022-08-07T00:36:14.155Z,81.72
2022-08-07T00:38:40.866Z,81.21
2022-08-07T00:41:10.016Z,78.78
2022-08-07T00:44:01.959Z,77.78
2022-08-07T00:46:30.159Z,79.16
2022-08-07T00:49:02.166Z,80.87
2022-08-07T00:51:57.211Z,82.23
2022-08-07T00:54:19.677Z,81.96
2022-08-07T00:56:49.899Z,83.66
2022-08-07T00:59:35.204Z,83.77
2022-08-07T01:02:13.920Z,83.19
2022-08-07T01:04:53.855Z,84.14
2022-08-07T01:07:27.570Z,85.36
2022-08-07T01:10:06.114Z,85.75
2022-08-07T01:12:39.420Z,83.91
2022-08-07T01:15:21.517Z,83.74
2022-08-07T01:17:48.671Z,83.41
2022-08-07T01:20:17.250Z,82.48
2022-08-07T01:22:54.338Z,81.56
2022-08-07T01:25:54.871Z,80.72
2022-08-07T01:28:21.902Z,78.91
2022-08-07T01:30:52.339Z,78.11
2022-08-07T01:33:22.496Z,77.11
2022-08-07T01:36:05.896Z,75.85
2022-08-07T01:38:36.001Z,75.11
2022-08-07T01:41:12.049Z,74.22
2022-08-07T01:43:54.045Z,78.03
2022-08-07T01:46:21.552Z,78.57
2022-08-07T01:48:48.683Z,78.63
2022-08-07T01:52:02.129Z,77.72
2022-08-07T01:54:32.786Z,76.92
2022-08-07T01:57:24.497Z,76.90
2022-08-07T02:00:01.936Z,78.16
2022-08-07T02:03:19.418Z,81.50
2022-08-07T02:05:43.486Z,83.86
2022-08-07T02:08:23.789Z,84.86
2022-08-07T02:10:55.231Z,83.77
2022-08-07T02:13:56.841Z,81.21
2022-08-07T02:16:19.854Z,79.09
2022-08-07T02:18:56.024Z,79.89
2022-08-07T02:21:24.959Z,82.54
2022-08-07T02:23:53.273Z,83.15
2022-08-07T02:26:32.424Z,81.32
2022-08-07T02:29:06.847Z,80.53
2022-08-07T02:31:42.246Z,82.83
2022-08-07T02:34:11.448Z,82.41
2022-08-07T02:36:51.749Z,81.75
2022-08-07T02:39:43.591Z,81.16
2022-08-07T02:42:09.881Z,78.97
2022-08-07T02:44:42.259Z,79.94
2022-08-07T02:47:19.761Z,80.19
2022-08-07T02:49:58.093Z,79.35
2022-08-07T02:52:51.623Z,78.65
2022-08-07T02:55:28.359Z,80.52
2022-08-07T02:58:13.397Z,81.13
2022-08-07T03:00:47.090Z,81.01
2022-08-07T03:03:22.517Z,80.57
2022-08-07T03:05:53.663Z,78.76
2022-08-07T03:08:26.785Z,77.75
2022-08-07T03:10:58.356Z,78.59
2022-08-07T03:13:39.322Z,81.36
2022-08-07T03:16:17.910Z,80.82
2022-08-07T03:18:51.068Z,82.48
2022-08-07T03:21:19.241Z,83.96
2022-08-07T03:24:19.469Z,81.69
2022-08-07T03:26:36.150Z,81.24
2022-08-07T03:29:20.589Z,82.81
2022-08-07T03:31:51.512Z,84.49
2022-08-07T03:34:22.763Z,83.80
2022-08-07T03:36:58.068Z,83.37
2022-08-07T03:39:46.509Z,82.53
2022-08-07T03:42:17.143Z,82.08
2022-08-07T03:44:47.315Z,81.85
2022-08-07T03:47:24.569Z,82.03
2022-08-07T03:49:52.392Z,81.45
2022-08-07T03:52:29.917Z,81.04
2022-08-07T03:55:06.580Z,82.16
2022-08-07T03:59:07.401Z,83.03
2022-08-07T04:00:30.569Z,82.64
2022-08-07T04:03:04.041Z,83.01
2022-08-07T04:05:39.724Z,81.61
2022-08-07T04:08:16.308Z,80.75
2022-08-07T04:10:54.501Z,82.32
2022-08-07T04:14:10.310Z,82.45
2022-08-07T04:16:31.017Z,83.38
2022-08-07T04:19:12.678Z,83.41
2022-08-07T04:21:59.630Z,82.53
2022-08-07T04:24:39.205Z,82.03
2022-08-07T04:27:20.286Z,82.05
2022-08-07T04:30:01.364Z,81.56
2022-08-07T04:32:38.807Z,81.89
2022-08-07T04:35:13.690Z,82.61
2022-08-07T04:38:02.985Z,82.65
2022-08-07T04:40:32.453Z,81.20
2022-08-07T04:43:01.625Z,82.83
2022-08-07T04:45:57.628Z,85.72
2022-08-07T04:48:52.118Z,85.74
2022-08-07T04:51:33.768Z,84.75
2022-08-07T04:54:40.747Z,84.63
2022-08-07T04:58:26.200Z,83.81
2022-08-07T05:00:31.035Z,83.37
2022-08-07T05:03:17.252Z,82.49
2022-08-07T05:05:59.877Z,81.70
2022-08-07T05:08:59.916Z,81.55
2022-08-07T05:11:57.364Z,82.46
2022-08-07T05:14:55.215Z,82.07
2022-08-07T05:17:52.019Z,83.87
2022-08-07T05:20:45.002Z,84.02
2022-08-07T05:23:30.117Z,83.84
2022-08-07T05:26:11.579Z,83.48
2022-08-07T05:28:48.591Z,83.17
2022-08-07T05:31:22.969Z,81.54
2022-08-07T05:34:04.360Z,81.64
2022-08-07T05:36:39.103Z,81.99
2022-08-07T05:40:13.455Z,81.37
2022-08-07T05:42:08.783Z,80.49
2022-08-07T05:44:52.958Z,82.89
2022-08-07T05:47:38.371Z,84.68
2022-08-07T05:50:16.684Z,83.79
2022-08-07T05:52:43.271Z,83.08
2022-08-07T05:55:10.866Z,82.89
2022-08-07T05:57:45.164Z,82.54
2022-08-07T06:00:16.008Z,81.32
2022-08-07T06:02:51.642Z,81.10
2022-08-07T06:05:25.953Z,81.62
2022-08-07T06:08:13.284Z,82.54
2022-08-07T06:10:51.260Z,82.72
2022-08-07T06:14:10.573Z,81.15
2022-08-07T06:16:10.114Z,81.33
2022-08-07T06:18:43.159Z,81.61
2022-08-07T06:22:14.761Z,81.28
2022-08-07T06:24:45.663Z,81.12
2022-08-07T06:26:53.479Z,81.35
2022-08-07T06:29:26.914Z,80.57
2022-08-07T06:31:55.712Z,80.19
2022-08-07T06:34:30.446Z,79.41
2022-08-07T06:36:58.907Z,79.27
2022-08-07T06:40:17.562Z,81.16
2022-08-07T06:42:37.205Z,82.07
2022-08-07T06:45:25.016Z,80.92
2022-08-07T06:48:02.223Z,81.37
2022-08-07T06:50:43.352Z,81.47
2022-08-07T06:55:28.351Z,80.14
2022-08-07T06:56:15.119Z,81.10
2022-08-07T07:00:13.978Z,79.35
2022-08-07T07:01:44.115Z,77.64
2022-08-07T07:04:32.639Z,78.40
2022-08-07T07:07:19.491Z,77.73
2022-08-07T07:09:51.206Z,77.94
2022-08-07T07:12:30.793Z,76.63
2022-08-07T07:15:23.818Z,76.47
2022-08-07T07:18:05.563Z,76.84
2022-08-07T07:20:37.082Z,77.15
2022-08-07T07:24:08.191Z,76.69
2022-08-07T07:26:34.001Z,75.63
2022-08-07T07:29:39.048Z,76.07
2022-08-07T07:31:51.503Z,75.79
2022-08-07T07:34:30.658Z,75.95
2022-08-07T07:37:14.273Z,76.44
2022-08-07T07:39:54.766Z,75.43
2022-08-07T07:42:32.366Z,76.72
2022-08-07T07:45:05.603Z,75.67
2022-08-07T07:47:42.852Z,74.77
2022-08-07T07:50:34.647Z,72.39
2022-08-07T07:53:20.568Z,71.51
2022-08-07T07:56:00.588Z,71.13
2022-08-07T07:58:40.907Z,70.77
2022-08-07T08:02:01.700Z,71.13
2022-08-07T08:04:09.856Z,71.10
2022-08-07T08:06:40.678Z,70.10
2022-08-07T08:09:23.596Z,68.47
2022-08-07T08:12:02.200Z,68.55
2022-08-07T08:14:31.707Z,70.04
2022-08-07T08:17:56.389Z,69.29
2022-08-07T08:20:17.173Z,69.34
2022-08-07T08:23:01.264Z,69.46
2022-08-07T08:25:51.902Z,67.47
2022-08-07T08:28:38.112Z,67.46
2022-08-07T08:31:14.881Z,69.91
2022-08-07T08:33:55.536Z,69.47
2022-08-07T08:36:30.544Z,69.61
2022-08-07T08:39:02.060Z,65.78
2022-08-07T08:41:58.519Z,68.48
2022-08-07T08:44:36.240Z,69.32
2022-08-07T08:47:17.470Z,71.03
2022-08-07T08:50:04.925Z,71.25
2022-08-07T08:52:53.701Z,71.01
2022-08-07T08:55:53.713Z,71.90
2022-08-07T08:58:47.254Z,72.70
2022-08-07T09:01:24.738Z,67.15
2022-08-07T09:04:08.937Z,64.86
2022-08-07T09:07:05.373Z,63.70
2022-08-07T09:10:16.884Z,63.73
2022-08-07T09:13:00.958Z,64.68
2022-08-07T09:16:23.467Z,64.93
2022-08-07T09:19:53.556Z,65.28
2022-08-07T09:24:28.243Z,62.93
2022-08-07T09:25:39.284Z,64.05
2022-08-07T09:30:06.492Z,64.92
2022-08-07T09:31:38.622Z,62.42
2022-08-07T09:34:27.689Z,61.24
2022-08-07T09:37:33.495Z,59.00
2022-08-07T09:40:24.089Z,58.97
2022-08-07T09:43:08.355Z,61.07
2022-08-07T09:47:23.554Z,59.97
2022-08-07T09:50:02.859Z,60.31
2022-08-07T09:52:37.558Z,59.34
2022-08-07T09:55:24.866Z,59.82
2022-08-07T09:58:05.856Z,58.69
2022-08-07T10:01:08.416Z,54.98
2022-08-07T10:04:05.051Z,57.87
2022-08-07T10:06:55.483Z,55.61
2022-08-07T10:09:59.361Z,55.39
2022-08-07T10:13:02.134Z,57.39
2022-08-07T10:15:44.636Z,55.55
2022-08-07T10:18:26.296Z,55.96
2022-08-07T10:21:05.388Z,56.71
2022-08-07T10:24:21.622Z,54.84
2022-08-07T10:27:00.507Z,53.27
2022-08-07T10:29:46.040Z,52.30
2022-08-07T10:32:52.661Z,51.88
2022-08-07T10:35:55.366Z,52.94
2022-08-07T10:38:49.886Z,53.89
2022-08-07T10:41:52.146Z,54.91
2022-08-07T10:44:38.265Z,52.94
2022-08-07T10:47:26.838Z,54.19
2022-08-07T10:50:25.809Z,50.63
2022-08-07T10:53:04.128Z,51.75
2022-08-07T10:55:53.451Z,50.99
2022-08-07T10:58:56.689Z,51.59
2022-08-07T11:01:50.995Z,51.17
2022-08-07T11:04:37.971Z,50.79
2022-08-07T11:07:56.551Z,52.22
2022-08-07T11:10:16.804Z,51.90
2022-08-07T11:13:02.204Z,50.60
2022-08-07T11:15:32.307Z,50.55
2022-08-07T11:18:04.546Z,50.78
2022-08-07T11:20:48.310Z,49.30
2022-08-07T11:23:36.386Z,49.17
2022-08-07T11:26:26.723Z,51.35
2022-08-07T11:29:01.630Z,50.03
2022-08-07T11:31:42.704Z,52.02
2022-08-07T11:34:25.030Z,49.73
2022-08-07T11:37:02.856Z,47.14
2022-08-07T11:39:59.757Z,49.88
2022-08-07T11:43:01.759Z,52.03
2022-08-07T11:45:40.675Z,50.40
2022-08-07T11:49:27.648Z,48.35
2022-08-07T11:52:07.033Z,49.05
2022-08-07T11:54:59.180Z,48.12
2022-08-07T11:58:00.557Z,49.30
2022-08-07T12:01:02.458Z,48.67
2022-08-07T12:03:46.366Z,48.67
2022-08-07T12:06:40.557Z,47.87
2022-08-07T12:09:33.986Z,48.21
2022-08-07T12:12:18.894Z,49.08
2022-08-07T12:14:56.170Z,47.54
2022-08-07T12:17:40.017Z,46.54
2022-08-07T12:20:54.858Z,47.18
2022-08-07T12:24:04.861Z,44.19
2022-08-07T12:26:49.046Z,46.57
2022-08-07T12:29:37.513Z,46.18
2022-08-07T12:32:20.865Z,45.47
2022-08-07T12:34:55.820Z,45.55
2022-08-07T12:37:28.418Z,48.01
2022-08-07T12:40:44.873Z,46.34
2022-08-07T12:43:09.263Z,45.95
2022-08-07T12:45:52.581Z,46.89
2022-08-07T12:48:53.266Z,45.15
2022-08-07T12:51:46.915Z,46.71
2022-08-07T12:54:41.888Z,46.90
2022-08-07T12:57:38.779Z,46.01
2022-08-07T13:00:20.854Z,45.26
2022-08-07T13:04:03.118Z,47.13
2022-08-07T13:06:54.212Z,47.57
2022-08-07T13:10:18.938Z,44.10
2022-08-07T13:13:47.558Z,45.53
2022-08-07T13:16:16.891Z,44.83
2022-08-07T13:19:11.505Z,45.37
2022-08-07T13:22:19.946Z,45.54
2022-08-07T13:25:00.453Z,46.03
2022-08-07T13:28:05.716Z,47.59
2022-08-07T13:30:40.017Z,46.83
2022-08-07T13:34:34.325Z,46.68
2022-08-07T13:36:26.090Z,47.64
2022-08-07T13:39:13.047Z,46.74
2022-08-07T13:41:56.831Z,46.31
2022-08-07T13:44:27.573Z,47.58
2022-08-07T13:47:04.934Z,46.40
2022-08-07T13:50:32.542Z,47.27
2022-08-07T13:52:38.083Z,47.31
2022-08-07T13:55:19.515Z,47.79
2022-08-07T13:58:28.128Z,49.08
2022-08-07T14:01:09.364Z,48.10
2022-08-07T14:04:06.628Z,47.20
2022-08-07T14:06:37.075Z,46.18
2022-08-07T14:09:09.839Z,46.24
2022-08-07T14:11:53.608Z,45.74
2022-08-07T14:14:38.707Z,46.49
2022-08-07T14:17:32.523Z,46.36
2022-08-07T14:20:42.130Z,47.28
2022-08-07T14:23:58.827Z,46.75
2022-08-07T14:26:30.108Z,45.76
2022-08-07T14:29:08.510Z,46.31
2022-08-07T14:31:56.444Z,45.87
2022-08-07T14:34:29.980Z,47.04
2022-08-07T14:37:01.831Z,46.96
2022-08-07T14:40:17.391Z,47.54
2022-08-07T14:42:27.574Z,45.85
2022-08-07T14:45:21.340Z,47.83
2022-08-07T14:47:50.441Z,48.11
2022-08-07T14:50:20.532Z,48.94
2022-08-07T14:52:47.881Z,48.46
2022-08-07T14:55:18.022Z,47.53
2022-08-07T14:57:55.099Z,47.34
2022-08-07T15:00:31.973Z,47.69
2022-08-07T15:03:18.688Z,47.47
2022-08-07T15:05:54.250Z,46.37
2022-08-07T15:08:32.396Z,46.98
2022-08-07T15:11:06.217Z,46.45
2022-08-07T15:13:37.774Z,45.01
2022-08-07T15:16:11.066Z,46.26
2022-08-07T15:18:44.273Z,44.75
2022-08-07T15:25:13.545Z,44.80
2022-08-07T15:27:23.705Z,45.32
2022-08-07T15:30:04.880Z,45.37
2022-08-07T15:32:50.863Z,45.63
2022-08-07T15:36:01.477Z,47.79
2022-08-07T15:38:30.771Z,47.04
2022-08-07T15:41:23.461Z,47.56
2022-08-07T15:44:00.277Z,46.02
2022-08-07T15:49:17.371Z,48.16
2022-08-07T15:54:45.009Z,48.67
2022-08-07T15:57:39.453Z,48.71
2022-08-07T16:00:08.729Z,47.51
2022-08-07T16:02:57.418Z,48.41
2022-08-07T16:05:31.394Z,47.66
2022-08-07T16:08:31.420Z,49.34
2022-08-07T16:11:26.252Z,49.93
2022-08-07T16:14:03.299Z,49.51
2022-08-07T16:16:49.865Z,49.44
2022-08-07T16:19:42.424Z,47.70
2022-08-07T16:22:55.057Z,48.38
2022-08-07T16:25:54.860Z,49.33
2022-08-07T16:30:07.633Z,47.76
2022-08-07T16:31:50.060Z,48.87
2022-08-07T16:34:26.456Z,48.59
2022-08-07T16:38:04.139Z,48.98
2022-08-07T16:40:30.793Z,48.84
2022-08-07T16:44:05.865Z,49.96
2022-08-07T16:47:14.045Z,48.68
2022-08-07T16:50:20.280Z,48.91
2022-08-07T16:53:26.804Z,49.57
2022-08-07T16:56:20.595Z,49.53
2022-08-07T16:59:14.692Z,50.27
2022-08-07T17:01:51.148Z,50.10
2022-08-07T17:04:57.982Z,50.83
2022-08-07T17:07:55.982Z,54.47
2022-08-07T17:10:32.412Z,48.23
2022-08-07T17:13:41.451Z,61.08
2022-08-07T17:16:39.211Z,66.80
2022-08-07T17:20:01.957Z,63.65
2022-08-07T17:22:38.816Z,67.71
2022-08-07T17:25:20.161Z,71.62
2022-08-07T17:28:14.206Z,69.88
2022-08-07T17:31:16.111Z,72.22
2022-08-07T17:34:15.601Z,75.22
2022-08-07T17:36:57.495Z,75.91
2022-08-07T17:39:57.606Z,75.91
2022-08-07T17:42:59.460Z,78.19
2022-08-07T17:45:56.351Z,79.86
2022-08-07T17:48:40.908Z,80.08
2022-08-07T17:51:59.680Z,77.28
2022-08-07T17:54:29.544Z,75.02
2022-08-07T17:57:18.702Z,74.38
2022-08-07T17:59:52.190Z,73.61
2022-08-07T18:02:35.976Z,73.60
2022-08-07T18:05:21.299Z,74.03
2022-08-07T18:08:14.522Z,77.94
2022-08-07T18:12:06.568Z,79.17
2022-08-07T18:14:16.372Z,77.73
2022-08-07T18:17:05.417Z,76.33
2022-08-07T18:21:03.253Z,76.76
2022-08-07T18:22:40.131Z,75.01
2022-08-07T18:25:24.301Z,73.38
2022-08-07T18:28:35.587Z,72.47
2022-08-07T18:31:14.119Z,72.15
2022-08-07T18:34:36.972Z,70.15
2022-08-07T18:37:09.227Z,71.66
2022-08-07T18:40:06.833Z,71.22
2022-08-07T18:42:44.031Z,72.27
2022-08-07T18:45:43.143Z,74.98
2022-08-07T18:49:23.742Z,77.09
2022-08-07T18:52:34.311Z,77.26
2022-08-07T18:54:32.760Z,76.15
2022-08-07T18:57:37.065Z,75.51
2022-08-07T19:00:33.946Z,73.65
2022-08-07T19:03:36.134Z,71.99
2022-08-07T19:06:11.675Z,71.57
2022-08-07T19:08:55.691Z,73.20
2022-08-07T19:12:04.890Z,71.54
2022-08-07T19:14:58.334Z,70.35
2022-08-07T19:18:01.116Z,72.40
2022-08-07T19:21:09.612Z,71.51
2022-08-07T19:23:58.849Z,71.53
2022-08-07T19:26:43.458Z,70.36
2022-08-07T19:31:05.964Z,70.91
2022-08-07T19:32:17.371Z,73.33
2022-08-07T19:35:03.113Z,73.83
2022-08-07T19:37:55.653Z,74.35
2022-08-07T19:40:30.845Z,75.28
2022-08-07T19:42:58.799Z,79.27
2022-08-07T19:46:06.053Z,78.67
2022-08-07T19:48:23.967Z,81.07
2022-08-07T19:50:53.658Z,79.83
2022-08-07T19:54:33.108Z,80.74
2022-08-07T19:57:56.846Z,80.85
2022-08-07T19:58:58.391Z,82.04
2022-08-07T20:01:52.222Z,80.60
2022-08-07T20:04:31.799Z,79.39
2022-08-07T20:07:00.416Z,81.22
2022-08-07T20:10:35.847Z,80.43
2022-08-07T20:12:31.716Z,81.37
2022-08-07T20:15:15.517Z,82.19
2022-08-07T20:17:45.194Z,83.95
2022-08-07T20:20:29.677Z,83.95
2022-08-07T20:23:10.858Z,82.19
2022-08-07T20:25:50.742Z,81.60
2022-08-07T20:28:19.596Z,80.03
2022-08-07T20:30:47.432Z,79.27
2022-08-07T20:33:36.811Z,79.58
2022-08-07T20:36:06.666Z,78.92
2022-08-07T20:38:35.202Z,78.62
2022-08-07T20:41:05.463Z,76.92
2022-08-07T20:43:35.146Z,77.08
2022-08-07T20:46:26.518Z,75.69
2022-08-07T20:49:54.194Z,76.12
2022-08-07T20:51:50.694Z,76.56
2022-08-07T20:54:29.754Z,76.69
2022-08-07T20:57:08.400Z,80.83
2022-08-07T21:00:07.873Z,80.36
2022-08-07T21:02:54.358Z,78.23
2022-08-07T21:05:43.016Z,76.16
2022-08-07T21:08:36.647Z,75.78
2022-08-07T21:11:14.610Z,78.79
2022-08-07T21:14:29.535Z,78.37
2022-08-07T21:18:01.771Z,81.05
2022-08-07T21:19:51.417Z,78.17
2022-08-07T21:22:39.505Z,79.84
2022-08-07T21:25:58.512Z,81.01
2022-08-07T21:28:53.560Z,81.79
2022-08-07T21:32:42.604Z,81.91
2022-08-07T21:34:32.148Z,83.48
2022-08-07T21:37:13.090Z,84.99
2022-08-07T21:40:18.882Z,84.61
2022-08-07T21:43:04.488Z,83.79
2022-08-07T21:46:07.573Z,85.50
2022-08-07T21:49:21.059Z,85.20
2022-08-07T21:52:13.200Z,84.67
2022-08-07T21:55:29.886Z,86.28
2022-08-07T21:58:18.403Z,84.85
2022-08-07T22:01:02.855Z,85.61
2022-08-07T22:03:57.517Z,85.60
2022-08-07T22:06:35.720Z,83.92
2022-08-07T22:09:10.932Z,83.18
2022-08-07T22:12:04.775Z,84.74
2022-08-07T22:14:59.439Z,85.20
2022-08-07T22:17:36.091Z,86.09
2022-08-07T22:20:26.701Z,86.65
2022-08-07T22:23:09.083Z,86.58
2022-08-07T22:25:45.339Z,84.99
2022-08-07T22:28:41.511Z,83.62
2022-08-07T22:31:45.480Z,84.44
2022-08-07T22:34:29.154Z,83.89
2022-08-07T22:37:16.792Z,83.21
2022-08-07T22:39:55.733Z,82.41
2022-08-07T22:42:30.371Z,83.73
2022-08-07T22:45:03.649Z,83.94
2022-08-07T22:47:58.470Z,83.90
2022-08-07T22:50:39.654Z,83.02
2022-08-07T22:54:06.507Z,82.32
2022-08-07T22:57:00.703Z,80.27
2022-08-07T22:59:46.193Z,81.03
2022-08-07T23:02:29.931Z,79.97
2022-08-07T23:06:07.670Z,81.34
2022-08-07T23:08:30.384Z,80.50
2022-08-07T23:11:21.525Z,79.44
2022-08-07T23:14:15.989Z,79.27
2022-08-07T23:17:04.437Z,81.16
2022-08-07T23:20:20.704Z,81.38
2022-08-07T23:23:09.993Z,83.52
2022-08-07T23:25:57.768Z,82.51
2022-08-07T23:28:54.600Z,83.88
2022-08-07T23:32:48.734Z,82.96
2022-08-07T23:35:16.746Z,85.04
2022-08-07T23:38:01.278Z,82.51
2022-08-07T23:40:49.367Z,83.94
2022-08-07T23:43:37.890Z,83.11
2022-08-07T23:46:23.926Z,82.46
2022-08-07T23:48:59.804Z,84.02
2022-08-07T23:53:05.692Z,84.63
2022-08-07T23:54:35.879Z,83.96
2022-08-07T23:57:30.494Z,81.97
